sensor_id;sensor_type;location;lat;lon;timestamp;P1;P2;P0
39955;PMS5003;25631;51.516;-0.470;2023-04-24T00:02:29;5;4;
39955;PMS5003;25631;51.516;-0.470;2023-04-24T00:05:07;4;3;
39955;PMS5003;25631;51.516;-0.470;2023-04-24T00:07:44;6;4;
39955;PMS5003;25631;51.516;-0.470;2023-04-24T00:10:21;7;4;
39955;PMS5003;25631;51.516;-0.470;2023-04-24T00:12:57;3;1;
39955;PMS5003;25631;51.516;-0.470;2023-04-24T00:15:34;3;2;
39955;PMS5003;25631;51.516;-0.470;2023-04-24T00:18:10;4;2;
39955;PMS5003;25631;51.516;-0.470;2023-04-24T00:20:47;4;3;
39955;PMS5003;25631;51.516;-0.470;2023-04-24T00:23:24;5;4;
39955;PMS5003;25631;51.516;-0.470;2023-04-24T00:26:00;8;6;
39955;PMS5003;25631;51.516;-0.470;2023-04-24T00:28:37;5;4;
39955;PMS5003;25631;51.516;-0.470;2023-04-24T00:31:13;7;4;
39955;PMS5003;25631;51.516;-0.470;2023-04-24T00:33:50;6;3;
39955;PMS5003;25631;51.516;-0.470;2023-04-24T00:36:26;4;1;
39955;PMS5003;25631;51.516;-0.470;2023-04-24T00:39:03;4;1;
39955;PMS5003;25631;51.516;-0.470;2023-04-24T00:41:39;3;3;
39955;PMS5003;25631;51.516;-0.470;2023-04-24T00:44:16;4;3;
39955;PMS5003;25631;51.516;-0.470;2023-04-24T00:46:53;5;4;
39955;PMS5003;25631;51.516;-0.470;2023-04-24T00:49:36;5;4;
39955;PMS5003;25631;51.516;-0.470;2023-04-24T00:52:12;3;3;
39955;PMS5003;25631;51.516;-0.470;2023-04-24T00:54:49;4;3;
39955;PMS5003;25631;51.516;-0.470;2023-04-24T00:57:26;3;2;
39955;PMS5003;25631;51.516;-0.470;2023-04-24T01:00:03;4;3;
39955;PMS5003;25631;51.516;-0.470;2023-04-24T01:02:42;5;3;
39955;PMS5003;25631;51.516;-0.470;2023-04-24T01:05:20;5;4;
39955;PMS5003;25631;51.516;-0.470;2023-04-24T01:07:56;3;3;
39955;PMS5003;25631;51.516;-0.470;2023-04-24T01:10:34;9;7;
39955;PMS5003;25631;51.516;-0.470;2023-04-24T01:13:14;13;8;
39955;PMS5003;25631;51.516;-0.470;2023-04-24T01:15:50;9;5;
39955;PMS5003;25631;51.516;-0.470;2023-04-24T01:18:27;9;5;
39955;PMS5003;25631;51.516;-0.470;2023-04-24T01:21:04;4;3;
39955;PMS5003;25631;51.516;-0.470;2023-04-24T01:23:42;5;3;
39955;PMS5003;25631;51.516;-0.470;2023-04-24T01:26:19;4;4;
39955;PMS5003;25631;51.516;-0.470;2023-04-24T01:28:56;3;1;
39955;PMS5003;25631;51.516;-0.470;2023-04-24T01:31:32;4;2;
39955;PMS5003;25631;51.516;-0.470;2023-04-24T01:34:15;3;2;
39955;PMS5003;25631;51.516;-0.470;2023-04-24T01:36:52;2;2;
39955;PMS5003;25631;51.516;-0.470;2023-04-24T01:39:28;2;2;
39955;PMS5003;25631;51.516;-0.470;2023-04-24T01:42:05;2;1;
39955;PMS5003;25631;51.516;-0.470;2023-04-24T01:44:42;2;1;
39955;PMS5003;25631;51.516;-0.470;2023-04-24T01:47:20;3;2;
39955;PMS5003;25631;51.516;-0.470;2023-04-24T01:49:57;6;5;
39955;PMS5003;25631;51.516;-0.470;2023-04-24T01:52:33;6;4;
39955;PMS5003;25631;51.516;-0.470;2023-04-24T01:55:10;4;0;
39955;PMS5003;25631;51.516;-0.470;2023-04-24T01:57:47;5;1;
39955;PMS5003;25631;51.516;-0.470;2023-04-24T02:00:23;4;1;
39955;PMS5003;25631;51.516;-0.470;2023-04-24T02:03:00;5;4;
39955;PMS5003;25631;51.516;-0.470;2023-04-24T02:05:37;5;3;
39955;PMS5003;25631;51.516;-0.470;2023-04-24T02:08:13;3;2;
39955;PMS5003;25631;51.516;-0.470;2023-04-24T02:10:50;4;3;
39955;PMS5003;25631;51.516;-0.470;2023-04-24T02:13:26;3;3;
39955;PMS5003;25631;51.516;-0.470;2023-04-24T02:16:03;5;3;
39955;PMS5003;25631;51.516;-0.470;2023-04-24T02:18:40;4;2;
39955;PMS5003;25631;51.516;-0.470;2023-04-24T02:21:16;3;3;
39955;PMS5003;25631;51.516;-0.470;2023-04-24T02:23:53;9;7;
39955;PMS5003;25631;51.516;-0.470;2023-04-24T02:26:29;6;5;
39955;PMS5003;25631;51.516;-0.470;2023-04-24T02:29:05;5;3;
39955;PMS5003;25631;51.516;-0.470;2023-04-24T02:31:42;4;2;
39955;PMS5003;25631;51.516;-0.470;2023-04-24T02:34:18;6;4;
39955;PMS5003;25631;51.516;-0.470;2023-04-24T02:36:55;3;2;
39955;PMS5003;25631;51.516;-0.470;2023-04-24T02:39:31;4;2;
39955;PMS5003;25631;51.516;-0.470;2023-04-24T02:42:07;3;2;
39955;PMS5003;25631;51.516;-0.470;2023-04-24T02:44:44;3;2;
39955;PMS5003;25631;51.516;-0.470;2023-04-24T02:47:20;3;2;
39955;PMS5003;25631;51.516;-0.470;2023-04-24T02:49:57;2;2;
39955;PMS5003;25631;51.516;-0.470;2023-04-24T02:52:33;2;1;
39955;PMS5003;25631;51.516;-0.470;2023-04-24T02:55:10;1;1;
39955;PMS5003;25631;51.516;-0.470;2023-04-24T02:57:46;2;1;
39955;PMS5003;25631;51.516;-0.470;2023-04-24T03:00:23;2;1;
39955;PMS5003;25631;51.516;-0.470;2023-04-24T03:02:59;6;5;
39955;PMS5003;25631;51.516;-0.470;2023-04-24T03:05:36;5;4;
39955;PMS5003;25631;51.516;-0.470;2023-04-24T03:08:12;6;4;
39955;PMS5003;25631;51.516;-0.470;2023-04-24T03:10:49;4;2;
39955;PMS5003;25631;51.516;-0.470;2023-04-24T03:13:25;3;1;
39955;PMS5003;25631;51.516;-0.470;2023-04-24T03:16:02;4;3;
39955;PMS5003;25631;51.516;-0.470;2023-04-24T03:18:38;3;3;
39955;PMS5003;25631;51.516;-0.470;2023-04-24T03:21:15;2;2;
39955;PMS5003;25631;51.516;-0.470;2023-04-24T03:23:51;5;4;
39955;PMS5003;25631;51.516;-0.470;2023-04-24T03:26:28;9;6;
39955;PMS5003;25631;51.516;-0.470;2023-04-24T03:29:04;8;6;
39955;PMS5003;25631;51.516;-0.470;2023-04-24T03:31:40;4;3;
39955;PMS5003;25631;51.516;-0.470;2023-04-24T03:34:17;5;3;
39955;PMS5003;25631;51.516;-0.470;2023-04-24T03:36:53;7;4;
39955;PMS5003;25631;51.516;-0.470;2023-04-24T03:39:30;7;4;
39955;PMS5003;25631;51.516;-0.470;2023-04-24T03:42:06;5;3;
39955;PMS5003;25631;51.516;-0.470;2023-04-24T03:44:43;7;2;
39955;PMS5003;25631;51.516;-0.470;2023-04-24T03:47:19;8;2;
39955;PMS5003;25631;51.516;-0.470;2023-04-24T03:49:56;4;3;
39955;PMS5003;25631;51.516;-0.470;2023-04-24T03:52:33;5;4;
39955;PMS5003;25631;51.516;-0.470;2023-04-24T03:55:09;8;5;
39955;PMS5003;25631;51.516;-0.470;2023-04-24T03:57:46;4;4;
39955;PMS5003;25631;51.516;-0.470;2023-04-24T04:00:22;4;3;
39955;PMS5003;25631;51.516;-0.470;2023-04-24T04:02:59;2;2;
39955;PMS5003;25631;51.516;-0.470;2023-04-24T04:05:35;5;4;
39955;PMS5003;25631;51.516;-0.470;2023-04-24T04:08:11;5;4;
39955;PMS5003;25631;51.516;-0.470;2023-04-24T04:10:48;11;11;
39955;PMS5003;25631;51.516;-0.470;2023-04-24T04:13:24;11;11;
39955;PMS5003;25631;51.516;-0.470;2023-04-24T04:16:01;12;11;
39955;PMS5003;25631;51.516;-0.470;2023-04-24T04:18:37;6;5;
39955;PMS5003;25631;51.516;-0.470;2023-04-24T04:21:14;7;6;
39955;PMS5003;25631;51.516;-0.470;2023-04-24T04:23:50;25;24;
39955;PMS5003;25631;51.516;-0.470;2023-04-24T04:26:26;26;25;
39955;PMS5003;25631;51.516;-0.470;2023-04-24T04:29:03;26;25;
39955;PMS5003;25631;51.516;-0.470;2023-04-24T04:31:39;3;3;
39955;PMS5003;25631;51.516;-0.470;2023-04-24T04:34:16;3;3;
39955;PMS5003;25631;51.516;-0.470;2023-04-24T04:36:52;3;3;
39955;PMS5003;25631;51.516;-0.470;2023-04-24T04:39:29;2;2;
39955;PMS5003;25631;51.516;-0.470;2023-04-24T04:42:06;2;2;
39955;PMS5003;25631;51.516;-0.470;2023-04-24T04:44:42;4;2;
39955;PMS5003;25631;51.516;-0.470;2023-04-24T04:47:19;3;2;
39955;PMS5003;25631;51.516;-0.470;2023-04-24T04:49:57;2;0;
39955;PMS5003;25631;51.516;-0.470;2023-04-24T04:52:34;4;3;
39955;PMS5003;25631;51.516;-0.470;2023-04-24T04:55:10;4;3;
39955;PMS5003;25631;51.516;-0.470;2023-04-24T04:57:47;7;4;
39955;PMS5003;25631;51.516;-0.470;2023-04-24T05:00:23;7;4;
39955;PMS5003;25631;51.516;-0.470;2023-04-24T05:03:00;5;3;
39955;PMS5003;25631;51.516;-0.470;2023-04-24T05:05:37;2;2;
39955;PMS5003;25631;51.516;-0.470;2023-04-24T05:08:13;3;2;
39955;PMS5003;25631;51.516;-0.470;2023-04-24T05:10:50;4;2;
39955;PMS5003;25631;51.516;-0.470;2023-04-24T05:13:26;3;2;
39955;PMS5003;25631;51.516;-0.470;2023-04-24T05:16:03;6;2;
39955;PMS5003;25631;51.516;-0.470;2023-04-24T05:18:40;3;3;
39955;PMS5003;25631;51.516;-0.470;2023-04-24T05:21:16;3;3;
39955;PMS5003;25631;51.516;-0.470;2023-04-24T05:23:52;1;1;
39955;PMS5003;25631;51.516;-0.470;2023-04-24T05:26:29;2;2;
39955;PMS5003;25631;51.516;-0.470;2023-04-24T05:29:06;3;3;
39955;PMS5003;25631;51.516;-0.470;2023-04-24T05:31:43;8;4;
39955;PMS5003;25631;51.516;-0.470;2023-04-24T05:34:19;8;3;
39955;PMS5003;25631;51.516;-0.470;2023-04-24T05:36:55;8;3;
39955;PMS5003;25631;51.516;-0.470;2023-04-24T05:39:32;5;3;
39955;PMS5003;25631;51.516;-0.470;2023-04-24T05:42:09;5;4;
39955;PMS5003;25631;51.516;-0.470;2023-04-24T05:44:46;6;5;
39955;PMS5003;25631;51.516;-0.470;2023-04-24T05:47:23;5;4;
39955;PMS5003;25631;51.516;-0.470;2023-04-24T05:50:00;3;2;
39955;PMS5003;25631;51.516;-0.470;2023-04-24T05:52:36;4;3;
39955;PMS5003;25631;51.516;-0.470;2023-04-24T05:55:12;4;3;
39955;PMS5003;25631;51.516;-0.470;2023-04-24T05:57:49;5;3;
39955;PMS5003;25631;51.516;-0.470;2023-04-24T06:00:26;5;4;
39955;PMS5003;25631;51.516;-0.470;2023-04-24T06:03:02;3;3;
39955;PMS5003;25631;51.516;-0.470;2023-04-24T06:05:39;4;4;
39955;PMS5003;25631;51.516;-0.470;2023-04-24T06:08:15;3;2;
39955;PMS5003;25631;51.516;-0.470;2023-04-24T06:10:52;2;1;
39955;PMS5003;25631;51.516;-0.470;2023-04-24T06:13:28;8;5;
39955;PMS5003;25631;51.516;-0.470;2023-04-24T06:16:05;6;3;
39955;PMS5003;25631;51.516;-0.470;2023-04-24T06:18:41;3;3;
39955;PMS5003;25631;51.516;-0.470;2023-04-24T06:21:18;4;4;
39955;PMS5003;25631;51.516;-0.470;2023-04-24T06:23:54;4;4;
39955;PMS5003;25631;51.516;-0.470;2023-04-24T06:26:30;4;3;
39955;PMS5003;25631;51.516;-0.470;2023-04-24T06:29:07;5;3;
39955;PMS5003;25631;51.516;-0.470;2023-04-24T06:31:44;5;4;
39955;PMS5003;25631;51.516;-0.470;2023-04-24T06:34:20;5;3;
39955;PMS5003;25631;51.516;-0.470;2023-04-24T06:36:57;5;3;
39955;PMS5003;25631;51.516;-0.470;2023-04-24T06:39:33;4;4;
39955;PMS5003;25631;51.516;-0.470;2023-04-24T06:42:10;10;6;
39955;PMS5003;25631;51.516;-0.470;2023-04-24T06:44:47;8;4;
39955;PMS5003;25631;51.516;-0.470;2023-04-24T06:47:24;5;3;
39955;PMS5003;25631;51.516;-0.470;2023-04-24T06:50:00;6;4;
39955;PMS5003;25631;51.516;-0.470;2023-04-24T06:52:37;5;4;
39955;PMS5003;25631;51.516;-0.470;2023-04-24T06:55:14;4;4;
39955;PMS5003;25631;51.516;-0.470;2023-04-24T06:57:50;5;4;
39955;PMS5003;25631;51.516;-0.470;2023-04-24T07:00:27;3;2;
39955;PMS5003;25631;51.516;-0.470;2023-04-24T07:03:03;4;3;
39955;PMS5003;25631;51.516;-0.470;2023-04-24T07:05:39;4;3;
39955;PMS5003;25631;51.516;-0.470;2023-04-24T07:08:16;4;3;
39955;PMS5003;25631;51.516;-0.470;2023-04-24T07:10:53;4;3;
39955;PMS5003;25631;51.516;-0.470;2023-04-24T07:13:29;8;4;
39955;PMS5003;25631;51.516;-0.470;2023-04-24T07:16:06;8;4;
39955;PMS5003;25631;51.516;-0.470;2023-04-24T07:18:42;6;4;
39955;PMS5003;25631;51.516;-0.470;2023-04-24T07:21:19;7;4;
39955;PMS5003;25631;51.516;-0.470;2023-04-24T07:23:55;8;5;
39955;PMS5003;25631;51.516;-0.470;2023-04-24T07:26:32;5;4;
39955;PMS5003;25631;51.516;-0.470;2023-04-24T07:29:08;4;3;
39955;PMS5003;25631;51.516;-0.470;2023-04-24T07:31:45;4;3;
39955;PMS5003;25631;51.516;-0.470;2023-04-24T07:34:21;3;2;
39955;PMS5003;25631;51.516;-0.470;2023-04-24T07:36:58;2;2;
39955;PMS5003;25631;51.516;-0.470;2023-04-24T07:39:35;3;2;
39955;PMS5003;25631;51.516;-0.470;2023-04-24T07:42:16;5;3;
39955;PMS5003;25631;51.516;-0.470;2023-04-24T07:44:52;4;3;
39955;PMS5003;25631;51.516;-0.470;2023-04-24T07:47:29;4;3;
39955;PMS5003;25631;51.516;-0.470;2023-04-24T07:50:06;5;4;
39955;PMS5003;25631;51.516;-0.470;2023-04-24T07:52:42;7;5;
39955;PMS5003;25631;51.516;-0.470;2023-04-24T07:55:19;6;3;
39955;PMS5003;25631;51.516;-0.470;2023-04-24T07:57:55;7;2;
39955;PMS5003;25631;51.516;-0.470;2023-04-24T08:00:32;4;3;
39955;PMS5003;25631;51.516;-0.470;2023-04-24T08:03:08;5;3;
39955;PMS5003;25631;51.516;-0.470;2023-04-24T08:05:45;8;4;
39955;PMS5003;25631;51.516;-0.470;2023-04-24T08:08:22;3;3;
39955;PMS5003;25631;51.516;-0.470;2023-04-24T08:10:59;2;2;
39955;PMS5003;25631;51.516;-0.470;2023-04-24T08:13:35;2;2;
39955;PMS5003;25631;51.516;-0.470;2023-04-24T08:16:12;6;4;
39955;PMS5003;25631;51.516;-0.470;2023-04-24T08:18:48;9;4;
39955;PMS5003;25631;51.516;-0.470;2023-04-24T08:21:24;19;17;
39955;PMS5003;25631;51.516;-0.470;2023-04-24T08:24:01;19;17;
39955;PMS5003;25631;51.516;-0.470;2023-04-24T08:26:38;19;17;
39955;PMS5003;25631;51.516;-0.470;2023-04-24T08:29:15;9;9;
39955;PMS5003;25631;51.516;-0.470;2023-04-24T08:31:51;8;7;
39955;PMS5003;25631;51.516;-0.470;2023-04-24T08:34:28;9;8;
39955;PMS5003;25631;51.516;-0.470;2023-04-24T08:37:04;8;8;
39955;PMS5003;25631;51.516;-0.470;2023-04-24T08:39:41;7;6;
39955;PMS5003;25631;51.516;-0.470;2023-04-24T08:42:18;6;5;
39955;PMS5003;25631;51.516;-0.470;2023-04-24T08:44:55;5;4;
39955;PMS5003;25631;51.516;-0.470;2023-04-24T08:47:34;2;2;
39955;PMS5003;25631;51.516;-0.470;2023-04-24T08:50:17;2;1;
39955;PMS5003;25631;51.516;-0.470;2023-04-24T08:52:58;2;1;
39955;PMS5003;25631;51.516;-0.470;2023-04-24T08:55:37;7;2;
39955;PMS5003;25631;51.516;-0.470;2023-04-24T08:58:15;7;2;
39955;PMS5003;25631;51.516;-0.470;2023-04-24T09:00:53;2;1;
39955;PMS5003;25631;51.516;-0.470;2023-04-24T09:03:30;1;0;
39955;PMS5003;25631;51.516;-0.470;2023-04-24T09:06:08;3;1;
39955;PMS5003;25631;51.516;-0.470;2023-04-24T09:08:46;5;4;
39955;PMS5003;25631;51.516;-0.470;2023-04-24T09:11:27;7;5;
39955;PMS5003;25631;51.516;-0.470;2023-04-24T09:14:03;8;3;
39955;PMS5003;25631;51.516;-0.470;2023-04-24T09:16:40;7;3;
39955;PMS5003;25631;51.516;-0.470;2023-04-24T09:19:17;7;3;
39955;PMS5003;25631;51.516;-0.470;2023-04-24T09:21:53;1;0;
39955;PMS5003;25631;51.516;-0.470;2023-04-24T09:24:30;2;1;
39955;PMS5003;25631;51.516;-0.470;2023-04-24T09:27:07;2;1;
39955;PMS5003;25631;51.516;-0.470;2023-04-24T09:29:53;3;2;
39955;PMS5003;25631;51.516;-0.470;2023-04-24T09:32:30;3;2;
39955;PMS5003;25631;51.516;-0.470;2023-04-24T09:35:08;4;2;
39955;PMS5003;25631;51.516;-0.470;2023-04-24T09:37:46;3;2;
39955;PMS5003;25631;51.516;-0.470;2023-04-24T09:40:24;2;1;
39955;PMS5003;25631;51.516;-0.470;2023-04-24T09:43:00;3;0;
39955;PMS5003;25631;51.516;-0.470;2023-04-24T09:45:38;3;0;
39955;PMS5003;25631;51.516;-0.470;2023-04-24T09:48:20;0;0;
39955;PMS5003;25631;51.516;-0.470;2023-04-24T09:51:05;0;0;
39955;PMS5003;25631;51.516;-0.470;2023-04-24T09:53:45;0;0;
39955;PMS5003;25631;51.516;-0.470;2023-04-24T09:56:22;4;2;
39955;PMS5003;25631;51.516;-0.470;2023-04-24T09:59:05;5;3;
39955;PMS5003;25631;51.516;-0.470;2023-04-24T10:01:42;4;3;
39955;PMS5003;25631;51.516;-0.470;2023-04-24T10:04:19;5;4;
39955;PMS5003;25631;51.516;-0.470;2023-04-24T10:06:57;6;5;
39955;PMS5003;25631;51.516;-0.470;2023-04-24T10:09:34;2;1;
39955;PMS5003;25631;51.516;-0.470;2023-04-24T10:12:10;2;1;
39955;PMS5003;25631;51.516;-0.470;2023-04-24T10:14:48;1;0;
39955;PMS5003;25631;51.516;-0.470;2023-04-24T10:17:25;3;3;
39955;PMS5003;25631;51.516;-0.470;2023-04-24T10:20:05;5;2;
39955;PMS5003;25631;51.516;-0.470;2023-04-24T10:22:42;2;1;
39955;PMS5003;25631;51.516;-0.470;2023-04-24T10:25:21;3;3;
39955;PMS5003;25631;51.516;-0.470;2023-04-24T10:27:59;2;2;
39955;PMS5003;25631;51.516;-0.470;2023-04-24T10:30:37;2;2;
39955;PMS5003;25631;51.516;-0.470;2023-04-24T10:33:21;3;3;
39955;PMS5003;25631;51.516;-0.470;2023-04-24T10:36:03;2;2;
39955;PMS5003;25631;51.516;-0.470;2023-04-24T10:38:41;0;0;
39955;PMS5003;25631;51.516;-0.470;2023-04-24T10:41:22;6;6;
39955;PMS5003;25631;51.516;-0.470;2023-04-24T10:44:05;1;1;
39955;PMS5003;25631;51.516;-0.470;2023-04-24T10:46:46;2;1;
39955;PMS5003;25631;51.516;-0.470;2023-04-24T10:49:30;2;1;
39955;PMS5003;25631;51.516;-0.470;2023-04-24T10:52:08;1;0;
39955;PMS5003;25631;51.516;-0.470;2023-04-24T10:54:45;2;2;
39955;PMS5003;25631;51.516;-0.470;2023-04-24T10:57:30;0;0;
39955;PMS5003;25631;51.516;-0.470;2023-04-24T11:00:12;0;0;
39955;PMS5003;25631;51.516;-0.470;2023-04-24T11:02:52;2;1;
39955;PMS5003;25631;51.516;-0.470;2023-04-24T11:05:49;2;1;
39955;PMS5003;25631;51.516;-0.470;2023-04-24T11:08:29;2;1;
39955;PMS5003;25631;51.516;-0.470;2023-04-24T11:11:08;4;2;
39955;PMS5003;25631;51.516;-0.470;2023-04-24T11:14:01;3;1;
39955;PMS5003;25631;51.516;-0.470;2023-04-24T11:16:42;2;0;
39955;PMS5003;25631;51.516;-0.470;2023-04-24T11:19:24;2;0;
39955;PMS5003;25631;51.516;-0.470;2023-04-24T11:22:02;1;0;
39955;PMS5003;25631;51.516;-0.470;2023-04-24T11:24:49;0;0;
39955;PMS5003;25631;51.516;-0.470;2023-04-24T11:27:26;0;0;
39955;PMS5003;25631;51.516;-0.470;2023-04-24T11:30:08;1;0;
39955;PMS5003;25631;51.516;-0.470;2023-04-24T11:32:47;1;0;
39955;PMS5003;25631;51.516;-0.470;2023-04-24T11:35:26;0;0;
39955;PMS5003;25631;51.516;-0.470;2023-04-24T11:38:02;1;1;
39955;PMS5003;25631;51.516;-0.470;2023-04-24T11:40:40;2;1;
39955;PMS5003;25631;51.516;-0.470;2023-04-24T11:43:17;3;1;
39955;PMS5003;25631;51.516;-0.470;2023-04-24T11:45:55;1;1;
39955;PMS5003;25631;51.516;-0.470;2023-04-24T11:48:35;1;1;
39955;PMS5003;25631;51.516;-0.470;2023-04-24T11:51:12;3;3;
39955;PMS5003;25631;51.516;-0.470;2023-04-24T11:53:48;4;3;
39955;PMS5003;25631;51.516;-0.470;2023-04-24T11:56:25;3;3;
39955;PMS5003;25631;51.516;-0.470;2023-04-24T11:59:03;0;0;
39955;PMS5003;25631;51.516;-0.470;2023-04-24T12:01:45;1;1;
39955;PMS5003;25631;51.516;-0.470;2023-04-24T12:04:22;2;0;
39955;PMS5003;25631;51.516;-0.470;2023-04-24T12:06:59;1;0;
39955;PMS5003;25631;51.516;-0.470;2023-04-24T12:09:43;0;0;
39955;PMS5003;25631;51.516;-0.470;2023-04-24T12:12:20;0;0;
39955;PMS5003;25631;51.516;-0.470;2023-04-24T12:15:00;2;1;
39955;PMS5003;25631;51.516;-0.470;2023-04-24T12:17:42;1;1;
39955;PMS5003;25631;51.516;-0.470;2023-04-24T12:20:23;1;1;
39955;PMS5003;25631;51.516;-0.470;2023-04-24T12:23:01;1;1;
39955;PMS5003;25631;51.516;-0.470;2023-04-24T12:25:38;1;1;
39955;PMS5003;25631;51.516;-0.470;2023-04-24T12:28:14;1;1;
39955;PMS5003;25631;51.516;-0.470;2023-04-24T12:30:51;3;1;
39955;PMS5003;25631;51.516;-0.470;2023-04-24T12:33:27;2;1;
39955;PMS5003;25631;51.516;-0.470;2023-04-24T12:36:09;4;1;
39955;PMS5003;25631;51.516;-0.470;2023-04-24T12:38:46;1;1;
39955;PMS5003;25631;51.516;-0.470;2023-04-24T12:41:30;2;1;
39955;PMS5003;25631;51.516;-0.470;2023-04-24T12:44:10;2;1;
39955;PMS5003;25631;51.516;-0.470;2023-04-24T12:46:46;2;1;
39955;PMS5003;25631;51.516;-0.470;2023-04-24T12:49:24;2;1;
39955;PMS5003;25631;51.516;-0.470;2023-04-24T12:52:00;6;4;
39955;PMS5003;25631;51.516;-0.470;2023-04-24T12:54:37;4;3;
39955;PMS5003;25631;51.516;-0.470;2023-04-24T12:57:13;2;2;
39955;PMS5003;25631;51.516;-0.470;2023-04-24T12:59:50;6;1;
39955;PMS5003;25631;51.516;-0.470;2023-04-24T13:02:28;2;1;
39955;PMS5003;25631;51.516;-0.470;2023-04-24T13:05:05;1;1;
39955;PMS5003;25631;51.516;-0.470;2023-04-24T13:07:43;1;1;
39955;PMS5003;25631;51.516;-0.470;2023-04-24T13:10:19;2;1;
39955;PMS5003;25631;51.516;-0.470;2023-04-24T13:12:56;6;5;
39955;PMS5003;25631;51.516;-0.470;2023-04-24T13:15:33;6;5;
39955;PMS5003;25631;51.516;-0.470;2023-04-24T13:18:09;1;0;
39955;PMS5003;25631;51.516;-0.470;2023-04-24T13:20:46;1;0;
39955;PMS5003;25631;51.516;-0.470;2023-04-24T13:23:22;2;1;
39955;PMS5003;25631;51.516;-0.470;2023-04-24T13:25:59;2;2;
39955;PMS5003;25631;51.516;-0.470;2023-04-24T13:28:35;3;2;
39955;PMS5003;25631;51.516;-0.470;2023-04-24T13:31:12;4;3;
39955;PMS5003;25631;51.516;-0.470;2023-04-24T13:33:48;3;3;
39955;PMS5003;25631;51.516;-0.470;2023-04-24T13:36:25;4;3;
39955;PMS5003;25631;51.516;-0.470;2023-04-24T13:39:01;5;2;
39955;PMS5003;25631;51.516;-0.470;2023-04-24T13:41:38;2;1;
39955;PMS5003;25631;51.516;-0.470;2023-04-24T13:44:16;2;1;
39955;PMS5003;25631;51.516;-0.470;2023-04-24T13:46:53;1;1;
39955;PMS5003;25631;51.516;-0.470;2023-04-24T13:49:31;3;2;
39955;PMS5003;25631;51.516;-0.470;2023-04-24T13:52:07;1;0;
39955;PMS5003;25631;51.516;-0.470;2023-04-24T13:54:44;1;0;
39955;PMS5003;25631;51.516;-0.470;2023-04-24T13:57:20;2;1;
39955;PMS5003;25631;51.516;-0.470;2023-04-24T13:59:57;5;4;
39955;PMS5003;25631;51.516;-0.470;2023-04-24T14:02:34;6;4;
39955;PMS5003;25631;51.516;-0.470;2023-04-24T14:05:10;9;4;
39955;PMS5003;25631;51.516;-0.470;2023-04-24T14:07:47;9;4;
39955;PMS5003;25631;51.516;-0.470;2023-04-24T14:10:24;10;5;
39955;PMS5003;25631;51.516;-0.470;2023-04-24T14:13:01;7;4;
39955;PMS5003;25631;51.516;-0.470;2023-04-24T14:15:37;6;4;
39955;PMS5003;25631;51.516;-0.470;2023-04-24T14:18:18;6;4;
39955;PMS5003;25631;51.516;-0.470;2023-04-24T14:20:54;8;6;
39955;PMS5003;25631;51.516;-0.470;2023-04-24T14:23:31;7;6;
39955;PMS5003;25631;51.516;-0.470;2023-04-24T14:26:08;2;1;
39955;PMS5003;25631;51.516;-0.470;2023-04-24T14:28:44;3;2;
39955;PMS5003;25631;51.516;-0.470;2023-04-24T14:31:21;3;2;
39955;PMS5003;25631;51.516;-0.470;2023-04-24T14:33:57;3;2;
39955;PMS5003;25631;51.516;-0.470;2023-04-24T14:36:34;1;0;
39955;PMS5003;25631;51.516;-0.470;2023-04-24T14:39:10;5;3;
39955;PMS5003;25631;51.516;-0.470;2023-04-24T14:41:47;2;2;
39955;PMS5003;25631;51.516;-0.470;2023-04-24T14:44:23;2;2;
39955;PMS5003;25631;51.516;-0.470;2023-04-24T14:47:00;3;2;
39955;PMS5003;25631;51.516;-0.470;2023-04-24T14:49:37;2;1;
39955;PMS5003;25631;51.516;-0.470;2023-04-24T14:52:14;3;2;
39955;PMS5003;25631;51.516;-0.470;2023-04-24T14:54:50;6;3;
39955;PMS5003;25631;51.516;-0.470;2023-04-24T14:57:26;5;3;
39955;PMS5003;25631;51.516;-0.470;2023-04-24T15:00:03;2;2;
39955;PMS5003;25631;51.516;-0.470;2023-04-24T15:02:41;3;3;
39955;PMS5003;25631;51.516;-0.470;2023-04-24T15:05:18;3;3;
39955;PMS5003;25631;51.516;-0.470;2023-04-24T15:07:55;2;2;
39955;PMS5003;25631;51.516;-0.470;2023-04-24T15:10:31;1;1;
39955;PMS5003;25631;51.516;-0.470;2023-04-24T15:13:08;3;2;
39955;PMS5003;25631;51.516;-0.470;2023-04-24T15:15:45;2;2;
39955;PMS5003;25631;51.516;-0.470;2023-04-24T15:18:22;3;3;
39955;PMS5003;25631;51.516;-0.470;2023-04-24T15:20:59;1;0;
39955;PMS5003;25631;51.516;-0.470;2023-04-24T15:23:36;1;0;
39955;PMS5003;25631;51.516;-0.470;2023-04-24T15:26:12;0;0;
39955;PMS5003;25631;51.516;-0.470;2023-04-24T15:28:48;0;0;
39955;PMS5003;25631;51.516;-0.470;2023-04-24T15:31:30;0;0;
39955;PMS5003;25631;51.516;-0.470;2023-04-24T15:34:07;0;0;
39955;PMS5003;25631;51.516;-0.470;2023-04-24T15:36:44;0;0;
39955;PMS5003;25631;51.516;-0.470;2023-04-24T15:39:22;0;0;
39955;PMS5003;25631;51.516;-0.470;2023-04-24T15:41:59;3;2;
39955;PMS5003;25631;51.516;-0.470;2023-04-24T15:44:35;2;2;
39955;PMS5003;25631;51.516;-0.470;2023-04-24T15:47:11;1;1;
39955;PMS5003;25631;51.516;-0.470;2023-04-24T15:49:48;1;1;
39955;PMS5003;25631;51.516;-0.470;2023-04-24T15:52:25;1;1;
39955;PMS5003;25631;51.516;-0.470;2023-04-24T15:55:02;0;0;
39955;PMS5003;25631;51.516;-0.470;2023-04-24T15:57:39;0;0;
39955;PMS5003;25631;51.516;-0.470;2023-04-24T16:00:16;0;0;
39955;PMS5003;25631;51.516;-0.470;2023-04-24T16:02:53;1;1;
39955;PMS5003;25631;51.516;-0.470;2023-04-24T16:05:29;1;1;
39955;PMS5003;25631;51.516;-0.470;2023-04-24T16:08:06;2;2;
39955;PMS5003;25631;51.516;-0.470;2023-04-24T16:10:42;2;2;
39955;PMS5003;25631;51.516;-0.470;2023-04-24T16:13:19;2;2;
39955;PMS5003;25631;51.516;-0.470;2023-04-24T16:15:56;1;1;
39955;PMS5003;25631;51.516;-0.470;2023-04-24T16:18:32;1;1;
39955;PMS5003;25631;51.516;-0.470;2023-04-24T16:21:08;3;1;
39955;PMS5003;25631;51.516;-0.470;2023-04-24T16:23:45;3;2;
39955;PMS5003;25631;51.516;-0.470;2023-04-24T16:26:21;3;2;
39955;PMS5003;25631;51.516;-0.470;2023-04-24T16:28:58;3;1;
39955;PMS5003;25631;51.516;-0.470;2023-04-24T16:31:34;3;1;
39955;PMS5003;25631;51.516;-0.470;2023-04-24T16:34:13;1;1;
39955;PMS5003;25631;51.516;-0.470;2023-04-24T16:36:50;1;1;
39955;PMS5003;25631;51.516;-0.470;2023-04-24T16:39:27;2;2;
39955;PMS5003;25631;51.516;-0.470;2023-04-24T16:42:03;2;2;
39955;PMS5003;25631;51.516;-0.470;2023-04-24T16:44:40;1;1;
39955;PMS5003;25631;51.516;-0.470;2023-04-24T16:47:17;2;2;
39955;PMS5003;25631;51.516;-0.470;2023-04-24T16:49:55;3;3;
39955;PMS5003;25631;51.516;-0.470;2023-04-24T16:52:32;3;3;
39955;PMS5003;25631;51.516;-0.470;2023-04-24T16:55:09;1;1;
39955;PMS5003;25631;51.516;-0.470;2023-04-24T16:57:45;1;1;
39955;PMS5003;25631;51.516;-0.470;2023-04-24T17:00:22;0;0;
39955;PMS5003;25631;51.516;-0.470;2023-04-24T17:02:58;1;0;
39955;PMS5003;25631;51.516;-0.470;2023-04-24T17:05:35;0;0;
39955;PMS5003;25631;51.516;-0.470;2023-04-24T17:08:11;2;0;
39955;PMS5003;25631;51.516;-0.470;2023-04-24T17:10:48;3;0;
39955;PMS5003;25631;51.516;-0.470;2023-04-24T17:13:25;2;0;
39955;PMS5003;25631;51.516;-0.470;2023-04-24T17:16:01;3;1;
39955;PMS5003;25631;51.516;-0.470;2023-04-24T17:18:38;2;1;
39955;PMS5003;25631;51.516;-0.470;2023-04-24T17:21:14;2;1;
39955;PMS5003;25631;51.516;-0.470;2023-04-24T17:23:51;1;1;
39955;PMS5003;25631;51.516;-0.470;2023-04-24T17:26:28;2;1;
39955;PMS5003;25631;51.516;-0.470;2023-04-24T17:29:04;3;2;
39955;PMS5003;25631;51.516;-0.470;2023-04-24T17:31:41;2;2;
39955;PMS5003;25631;51.516;-0.470;2023-04-24T17:34:18;2;2;
39955;PMS5003;25631;51.516;-0.470;2023-04-24T17:36:55;2;1;
39955;PMS5003;25631;51.516;-0.470;2023-04-24T17:39:31;1;0;
39955;PMS5003;25631;51.516;-0.470;2023-04-24T17:42:08;2;2;